Главная страница
METAR-TAF:

METAR-TAF

Аэропорты :

Брюссель, Бельгия

широта: 50-54N, долгота: 004-32E, высота над уровнем моря: 55 м

Текущие метеонаблюдения

Эта сводка был подготовлена 20 минут назад, в 00:50 UTC
Ветер 3 Узел от юго-западный
Температура 6°C
Влажность 87%
Давление 1038 hPa
Видимость 10 км и более
Нет облачности ниже 1500 м, и нет кучево-дождевой облачности

METAR: EBBR 250050Z 23003KT CAVOK 06/04 Q1038 NOSIG

Время: 03:10 (01:10 UTC)

Прогноз

Эта сводка был подготовлена 8 часа и 0 минут назад, в 17:10 UTC
Прогноз действительный с 24-го 18 UTC до 25-го 24 UTC
Ветер 5 Узел от северо-западный
Видимость 10 км и более
небольшая облачность на высоте 4500 фута
Вероятность 40% :
временами
С 24-го 03 UTC до 24-го 07 UTC
Видимость: 3500 м
дымка

TAF: EBBR 241710Z 2418/2524 32005KT 9999 FEW045 PROB40 TEMPO 2403/2407 3500 BR

Метеонаблюдения и прогнозы для более 4000 аэропортов (сводки METAR и TAF).

Имеющиеся станции представлены на карте желтыми и красными точками.

Чтобы увидеть название станции, наведите на нее мышь.

Затем щелкните, чтобы увидеть метеонаблюдения и метеопрогнозы.

Управление картой: чтобы увеличить масштаб, щелкните зеленые кнопки с черным крестиком; чтобы уменьшить масштаб, щелкните зеленую кнопку с тире; для просмотра соседних карт щелкайте зеленые стрелки.


METAR-TAF: